createdAt,value
2022-09-04T00:01:56.864Z,99.26
2022-09-04T00:07:23.722Z,99.46
2022-09-04T00:12:16.662Z,99.26
2022-09-04T00:17:16.589Z,99.36
2022-09-04T00:22:16.500Z,99.26
2022-09-04T00:27:16.440Z,99.26
2022-09-04T00:32:16.462Z,99.16
2022-09-04T00:37:16.322Z,99.16
2022-09-04T00:42:16.245Z,99.16
2022-09-04T00:47:16.164Z,99.36
2022-09-04T00:52:16.081Z,99.05
2022-09-04T00:57:16.010Z,99.36
2022-09-04T01:02:16.036Z,98.65
2022-09-04T01:07:15.900Z,98.80
2022-09-04T01:12:15.804Z,99.21
2022-09-04T01:17:15.777Z,99.30
2022-09-04T01:22:15.677Z,99.61
2022-09-04T01:27:15.637Z,99.41
2022-09-04T01:32:15.546Z,99.10
2022-09-04T01:37:15.488Z,98.95
2022-09-04T01:42:15.393Z,98.85
2022-09-04T01:47:15.352Z,98.95
2022-09-04T01:52:15.273Z,99.15
2022-09-04T01:57:15.890Z,99.19
2022-09-04T02:02:15.205Z,99.19
2022-09-04T02:07:15.111Z,99.10
2022-09-04T02:12:15.005Z,99.10
2022-09-04T02:17:14.963Z,98.99
2022-09-04T02:22:14.901Z,99.70
2022-09-04T02:27:14.799Z,99.46
2022-09-04T02:32:14.733Z,99.55
2022-09-04T02:37:14.661Z,99.99
2022-09-04T02:42:14.595Z,99.99
2022-09-04T02:47:14.623Z,99.99
2022-09-04T02:52:14.457Z,99.99
2022-09-04T02:57:14.386Z,99.99
2022-09-04T03:02:14.370Z,99.99
2022-09-04T03:07:14.253Z,99.97
2022-09-04T03:12:14.266Z,99.99
2022-09-04T03:17:14.123Z,99.99
2022-09-04T03:22:14.065Z,99.99
2022-09-04T03:27:13.976Z,99.99
2022-09-04T03:32:16.677Z,99.99
2022-09-04T03:37:13.842Z,99.99
2022-09-04T03:42:13.792Z,99.99
2022-09-04T03:47:13.701Z,99.99
2022-09-04T03:52:13.675Z,99.99
2022-09-04T03:57:13.577Z,99.81
2022-09-04T04:02:13.516Z,99.99
2022-09-04T04:07:13.493Z,99.99
2022-09-04T04:12:13.369Z,99.99
2022-09-04T04:17:14.872Z,99.99
2022-09-04T04:22:13.252Z,99.99
2022-09-04T04:27:13.168Z,99.99
2022-09-04T04:32:13.102Z,99.99
2022-09-04T04:37:13.083Z,99.99
2022-09-04T04:42:12.968Z,99.99
2022-09-04T04:47:12.958Z,99.99
2022-09-04T04:52:12.885Z,99.99
2022-09-04T04:57:12.909Z,99.99
2022-09-04T05:02:12.799Z,99.99
2022-09-04T05:07:12.634Z,99.99
2022-09-04T05:12:12.585Z,99.99
2022-09-04T05:17:12.539Z,99.99
2022-09-04T05:22:12.438Z,99.99
2022-09-04T05:27:12.362Z,99.99
2022-09-04T05:32:12.295Z,99.99
2022-09-04T05:37:12.229Z,99.99
2022-09-04T05:42:12.190Z,99.99
2022-09-04T05:47:12.100Z,99.99
2022-09-04T05:52:12.017Z,99.99
2022-09-04T05:57:12.005Z,99.99
2022-09-04T06:02:21.986Z,99.61
2022-09-04T06:07:14.695Z,98.60
2022-09-04T06:12:19.247Z,97.89
2022-09-04T06:17:14.977Z,98.09
2022-09-04T06:22:14.524Z,98.75
2022-09-04T06:27:14.452Z,98.35
2022-09-04T06:32:14.371Z,98.40
2022-09-04T06:37:14.355Z,98.00
2022-09-04T06:42:14.226Z,98.40
2022-09-04T06:47:14.177Z,98.96
2022-09-04T06:52:14.105Z,97.85
2022-09-04T06:57:14.047Z,98.82
2022-09-04T07:02:14.096Z,97.91
2022-09-04T07:07:13.908Z,98.01
2022-09-04T07:12:13.839Z,97.60
2022-09-04T07:17:13.806Z,97.40
2022-09-04T07:22:13.714Z,97.16
2022-09-04T07:27:13.645Z,97.66
2022-09-04T07:32:13.546Z,97.05
2022-09-04T07:37:13.509Z,96.75
2022-09-04T07:42:13.429Z,95.70
2022-09-04T07:47:13.363Z,96.50
2022-09-04T07:52:13.461Z,96.05
2022-09-04T07:57:13.235Z,95.85
2022-09-04T08:02:13.163Z,94.80
2022-09-04T08:07:13.443Z,94.39
2022-09-04T08:12:13.137Z,95.50
2022-09-04T08:17:13.007Z,96.41
2022-09-04T08:22:12.896Z,94.39
2022-09-04T08:27:12.853Z,95.72
2022-09-04T08:32:12.810Z,93.60
2022-09-04T08:37:12.704Z,91.74
2022-09-04T08:42:12.614Z,91.34
2022-09-04T08:47:12.551Z,90.99
2022-09-04T08:52:12.468Z,90.19
2022-09-04T08:57:12.408Z,90.45
2022-09-04T09:02:12.369Z,89.00
2022-09-04T09:07:12.283Z,87.95
2022-09-04T09:12:12.206Z,87.66
2022-09-04T09:17:12.140Z,85.39
2022-09-04T09:22:12.485Z,74.41
2022-09-04T09:27:12.054Z,65.92
2022-09-04T09:32:11.935Z,61.91
2022-09-04T09:37:11.899Z,58.54
2022-09-04T09:42:11.859Z,55.38
2022-09-04T09:47:11.777Z,54.52
2022-09-04T09:52:11.715Z,53.21
2022-09-04T09:57:11.629Z,53.36
2022-09-04T10:02:11.591Z,51.73
2022-09-04T10:07:11.494Z,50.93
2022-09-04T10:12:11.421Z,51.54
2022-09-04T10:17:11.361Z,52.89
2022-09-04T10:22:11.281Z,50.71
2022-09-04T10:27:11.216Z,48.07
2022-09-04T10:32:11.478Z,49.14
2022-09-04T10:37:11.137Z,53.88
2022-09-04T10:42:11.057Z,48.24
2022-09-04T10:47:10.983Z,47.31
2022-09-04T10:52:10.950Z,47.80
2022-09-04T10:57:10.826Z,45.61
2022-09-04T11:02:10.849Z,49.82
2022-09-04T11:07:10.708Z,44.92
2022-09-04T11:12:10.657Z,47.14
2022-09-04T11:17:10.656Z,44.97
2022-09-04T11:22:10.513Z,44.97
2022-09-04T11:27:10.439Z,42.55
2022-09-04T11:32:10.352Z,45.31
2022-09-04T11:37:10.322Z,44.38
2022-09-04T11:42:10.243Z,42.71
2022-09-04T11:47:10.188Z,43.49
2022-09-04T11:52:10.442Z,44.18
2022-09-04T11:57:10.066Z,44.06
2022-09-04T12:02:10.025Z,42.87
2022-09-04T12:07:10.001Z,42.75
2022-09-04T12:12:09.961Z,42.48
2022-09-04T12:17:09.813Z,46.14
2022-09-04T12:22:09.737Z,45.62
2022-09-04T12:27:09.674Z,42.93
2022-09-04T12:32:09.665Z,44.35
2022-09-04T12:37:09.570Z,44.67
2022-09-04T12:42:09.465Z,42.09
2022-09-04T12:47:09.412Z,44.98
2022-09-04T12:52:09.342Z,48.42
2022-09-04T12:57:09.275Z,47.49
2022-09-04T13:02:09.388Z,48.39
2022-09-04T13:07:15.971Z,44.71
2022-09-04T13:12:10.083Z,49.28
2022-09-04T13:17:09.037Z,48.44
2022-09-04T13:22:08.960Z,49.43
2022-09-04T13:27:08.886Z,49.21
2022-09-04T13:32:08.821Z,48.25
2022-09-04T13:37:08.781Z,49.33
2022-09-04T13:42:08.695Z,47.97
2022-09-04T13:47:08.690Z,47.70
2022-09-04T13:52:08.572Z,47.35
2022-09-04T13:57:08.514Z,48.63
2022-09-04T14:02:08.414Z,47.23
2022-09-04T14:07:08.372Z,47.13
2022-09-04T14:12:08.308Z,46.64
2022-09-04T14:17:08.229Z,47.82
2022-09-04T14:22:08.254Z,48.83
2022-09-04T14:27:08.117Z,48.75
2022-09-04T14:32:08.075Z,47.35
2022-09-04T14:37:07.979Z,51.03
2022-09-04T14:42:07.921Z,53.64
2022-09-04T14:47:07.899Z,53.50
2022-09-04T14:52:07.780Z,54.32
2022-09-04T14:57:07.710Z,56.49
2022-09-04T15:02:07.815Z,55.05
2022-09-04T15:07:11.667Z,51.28
2022-09-04T15:12:23.827Z,49.49
2022-09-04T15:17:08.601Z,49.30
2022-09-04T15:22:07.383Z,48.63
2022-09-04T15:27:07.305Z,50.81
2022-09-04T15:32:07.238Z,48.90
2022-09-04T15:37:08.209Z,50.59
2022-09-04T15:42:07.144Z,49.62
2022-09-04T15:47:07.044Z,49.05
2022-09-04T15:52:07.017Z,48.48
2022-09-04T15:57:07.519Z,49.47
2022-09-04T16:02:06.955Z,54.05
2022-09-04T16:07:06.849Z,53.38
2022-09-04T16:12:06.751Z,57.27
2022-09-04T16:17:06.671Z,60.60
2022-09-04T16:22:06.593Z,64.79
2022-09-04T16:27:06.527Z,66.55
2022-09-04T16:32:06.603Z,68.96
2022-09-04T16:37:06.413Z,67.33
2022-09-04T16:42:06.363Z,70.22
2022-09-04T16:47:06.506Z,69.82
2022-09-04T16:52:06.193Z,68.86
2022-09-04T16:57:12.617Z,71.84
2022-09-04T17:02:07.172Z,72.88
2022-09-04T17:07:06.000Z,74.07
2022-09-04T17:12:05.926Z,70.92
2022-09-04T17:17:30.247Z,69.73
2022-09-04T17:28:14.932Z,67.13
2022-09-04T17:29:15.227Z,66.34
2022-09-04T17:32:32.187Z,63.95
2022-09-04T17:40:35.394Z,67.54
2022-09-04T17:42:10.151Z,72.61
2022-09-04T17:47:05.445Z,69.06
2022-09-04T17:52:05.464Z,68.70
2022-09-04T17:57:05.323Z,73.82
2022-09-04T18:02:05.345Z,71.72
2022-09-04T18:07:33.498Z,71.26
2022-09-04T18:12:06.126Z,69.56
2022-09-04T18:17:12.806Z,71.99
2022-09-04T18:22:26.352Z,73.19
2022-09-04T18:27:05.924Z,73.42
2022-09-04T18:37:21.499Z,74.22
2022-09-04T18:37:41.450Z,75.46
2022-09-04T18:47:46.535Z,72.99
2022-09-04T18:50:52.395Z,73.89
2022-09-04T18:52:05.699Z,74.69
2022-09-04T18:57:06.367Z,72.29
2022-09-04T19:02:04.518Z,73.29
2022-09-04T19:07:06.876Z,71.23
2022-09-04T19:12:04.304Z,71.73
2022-09-04T19:17:04.357Z,76.13
2022-09-04T19:22:04.185Z,75.87
2022-09-04T19:27:04.164Z,77.70
2022-09-04T19:32:05.094Z,78.34
2022-09-04T19:37:28.110Z,78.94
2022-09-04T19:46:02.490Z,78.28
2022-09-04T19:47:04.983Z,77.87
2022-09-04T19:53:24.114Z,78.28
2022-09-04T19:57:32.325Z,79.18
2022-09-04T20:02:04.645Z,79.18
2022-09-04T20:07:03.545Z,79.22
2022-09-04T20:12:03.578Z,78.92
2022-09-04T20:17:03.502Z,77.81
2022-09-04T20:22:03.415Z,78.05
2022-09-04T20:27:03.296Z,78.96
2022-09-04T20:32:03.296Z,78.85
2022-09-04T20:37:03.196Z,78.45
2022-09-04T20:42:03.086Z,78.29
2022-09-04T20:52:43.030Z,79.29
2022-09-04T20:52:53.303Z,78.29
2022-09-04T20:59:16.584Z,78.49
2022-09-04T21:03:20.470Z,77.39
2022-09-04T21:07:03.742Z,76.78
2022-09-04T21:12:02.666Z,76.48
2022-09-04T21:17:02.864Z,76.48
2022-09-04T21:22:05.282Z,76.78
2022-09-04T21:27:03.572Z,76.89
2022-09-04T21:32:02.519Z,77.42
2022-09-04T21:37:02.370Z,77.42
2022-09-04T21:42:12.263Z,77.72
2022-09-04T21:47:08.608Z,78.93
2022-09-04T21:52:03.254Z,78.93
2022-09-04T22:02:32.245Z,79.57
2022-09-04T22:02:38.449Z,78.36
2022-09-04T22:08:49.797Z,79.57
2022-09-04T22:13:43.096Z,80.81
2022-09-04T22:17:02.928Z,81.96
2022-09-04T22:22:02.058Z,83.40
2022-09-04T22:27:01.669Z,83.20
2022-09-04T22:32:01.582Z,83.20
2022-09-04T22:37:01.577Z,83.20
2022-09-04T22:42:01.479Z,84.11
2022-09-04T22:47:01.515Z,84.25
2022-09-04T22:52:01.661Z,83.25
2022-09-04T22:57:02.293Z,84.85
2022-09-04T23:02:13.308Z,84.35
2022-09-04T23:10:05.096Z,84.75
2022-09-04T23:13:56.230Z,84.89
2022-09-04T23:17:02.009Z,84.59
2022-09-04T23:26:36.684Z,84.80
2022-09-04T23:27:02.221Z,85.50
2022-09-04T23:32:07.012Z,85.84
2022-09-04T23:37:01.759Z,86.95
2022-09-04T23:42:00.728Z,86.55
2022-09-04T23:47:00.763Z,85.94
2022-09-04T23:52:00.514Z,86.55
2022-09-04T23:57:00.537Z,87.25
